Beijing, Beijing

12:07 AM CST on July 27, 2016 (GMT +0800)
Beijing Capital | | Change Station

Elev 115 ft 40.07 °N, 116.59 °E | Updated 7 minutes ago

Clear
Clear
77 °F
Feels Like 77 °F
N
2
Wind Variable Wind from ESE

Today
High -- | Low -- °F
--% Chance of Precip.
Yesterday
High -- | Low -- °F
Precip. -- in
Pressure 29.62 in
Visibility -9999.0 miles
Clouds
Dew Point 75 °F
Humidity 94%
Rainfall 0.00 in
Snow Depth Not available.
5:07 AM 7:32 PM
Waning Gibbous, 53% visible
METAR ZBAA 261600Z 12001MPS CAVOK 25/24 Q1003 NOSIG
Pressure 29.62 in
Visibility -9999.0 miles
Clouds
Dew Point 75 °F
Humidity 94%
Rainfall 0.00 in
Snow Depth Not available.
5:07 AM 7:32 PM
Waning Gibbous, 53% visible
METAR ZBAA 261600Z 12001MPS CAVOK 25/24 Q1003 NOSIG

10-Day Weather Forecast

No radar image for this location.
×

Almanac

Astronomy

Jul. 27, 2016 Rise Set
Actual Time
Civil Twilight
Nautical Twilight
Astronomical Twilight
Moon
Length of Visible Light
Length of Day
Tomorrow will be .
, % of the Moon is Illuminated

Today's Extremes

Country Highs Country Lows

Community

WunderPhotos

Upload Photos

1,927,625 photos uploaded!

WunderBlog® & News

Nearby

Air Quality

  Air Quality AQ Index Pollutant
Not available.

Snow Depth

Station Depth Elevation

Earthquake Activity

City Distance Mag. Time & Date
Minimum magnitude displayed is 2.5.

Coastal Water Temperatures

Place Temperature

Stations

Nearby Weather Stations

Station Location Temp. Windchill Dew Point Humidity Wind Precip. Elev Updated Type